createdAt,value
2019-02-25T00:02:04.626Z,4.50
2019-02-25T00:04:36.212Z,4.50
2019-02-25T00:07:07.266Z,4.50
2019-02-25T00:09:38.828Z,4.50
2019-02-25T00:12:10.166Z,4.40
2019-02-25T00:14:41.188Z,4.40
2019-02-25T00:17:13.041Z,4.40
2019-02-25T00:19:44.626Z,4.40
2019-02-25T00:22:16.327Z,4.30
2019-02-25T00:24:47.583Z,4.20
2019-02-25T00:27:18.847Z,4.20
2019-02-25T00:29:50.751Z,4.20
2019-02-25T00:32:21.737Z,4.20
2019-02-25T00:34:52.899Z,4.20
2019-02-25T00:37:24.643Z,4.20
2019-02-25T00:39:56.514Z,4.20
2019-02-25T00:42:28.040Z,4.10
2019-02-25T00:44:59.609Z,4.10
2019-02-25T00:47:31.202Z,4.10
2019-02-25T00:50:02.687Z,4.00
2019-02-25T00:52:34.543Z,4.00
2019-02-25T00:55:06.427Z,3.90
2019-02-25T00:57:38.072Z,3.90
2019-02-25T01:00:13.346Z,3.80
2019-02-25T01:02:44.341Z,3.80
2019-02-25T01:05:16.440Z,3.80
2019-02-25T01:07:47.748Z,3.70
2019-02-25T01:10:19.291Z,3.70
2019-02-25T01:12:50.389Z,3.70
2019-02-25T01:15:22.417Z,3.70
2019-02-25T01:17:53.676Z,3.70
2019-02-25T01:20:24.626Z,3.60
2019-02-25T01:22:55.842Z,3.50
2019-02-25T01:25:27.240Z,3.50
2019-02-25T01:27:58.988Z,3.50
2019-02-25T01:30:30.418Z,3.50
2019-02-25T01:33:01.706Z,3.50
2019-02-25T01:35:32.659Z,3.50
2019-02-25T01:38:04.513Z,3.40
2019-02-25T01:40:36.115Z,3.10
2019-02-25T01:43:07.498Z,3.00
2019-02-25T01:45:38.899Z,3.00
2019-02-25T01:48:09.912Z,3.00
2019-02-25T01:50:41.450Z,3.00
2019-02-25T01:53:13.064Z,3.00
2019-02-25T01:55:44.289Z,3.10
2019-02-25T01:58:15.877Z,3.20
2019-02-25T02:00:47.412Z,3.10
2019-02-25T02:03:18.763Z,3.20
2019-02-25T02:05:50.572Z,3.30
2019-02-25T02:08:22.081Z,3.30
2019-02-25T02:10:53.671Z,3.40
2019-02-25T02:13:25.208Z,3.40
2019-02-25T02:15:56.780Z,3.40
2019-02-25T02:18:28.315Z,3.50
2019-02-25T02:20:59.884Z,3.50
2019-02-25T02:23:30.913Z,3.60
2019-02-25T02:26:02.457Z,3.50
2019-02-25T02:28:34.277Z,3.50
2019-02-25T02:31:06.144Z,3.50
2019-02-25T02:33:37.698Z,3.40
2019-02-25T02:36:11.600Z,3.40
2019-02-25T02:38:42.167Z,3.40
2019-02-25T02:41:13.835Z,3.40
2019-02-25T02:43:45.867Z,3.40
2019-02-25T02:47:12.834Z,3.40
2019-02-25T02:49:43.914Z,3.50
2019-02-25T02:52:14.888Z,3.40
2019-02-25T02:54:46.507Z,3.40
2019-02-25T02:57:17.951Z,3.40
2019-02-25T02:59:49.246Z,3.50
2019-02-25T03:02:21.116Z,3.50
2019-02-25T03:04:52.400Z,3.60
2019-02-25T03:07:24.047Z,3.50
2019-02-25T03:09:56.001Z,3.50
2019-02-25T03:12:27.215Z,3.50
2019-02-25T03:14:58.438Z,3.50
2019-02-25T03:17:29.460Z,3.50
2019-02-25T03:20:01.287Z,3.50
2019-02-25T03:22:32.283Z,3.50
2019-02-25T03:25:03.068Z,3.50
2019-02-25T03:27:34.657Z,3.60
2019-02-25T03:30:07.995Z,3.60
2019-02-25T03:32:39.715Z,3.60
2019-02-25T03:35:10.902Z,3.70
2019-02-25T03:37:42.890Z,3.80
2019-02-25T03:40:17.275Z,3.60
2019-02-25T03:42:48.863Z,3.40
2019-02-25T03:45:21.114Z,3.40
2019-02-25T03:47:53.029Z,3.40
2019-02-25T03:50:23.890Z,3.40
2019-02-25T03:52:54.846Z,3.40
2019-02-25T03:55:26.019Z,3.40
2019-02-25T03:57:57.777Z,3.50
2019-02-25T04:00:29.455Z,3.50
2019-02-25T04:03:01.017Z,3.40
2019-02-25T04:05:32.288Z,3.30
2019-02-25T04:08:04.102Z,3.30
2019-02-25T04:10:35.085Z,3.30
2019-02-25T04:13:05.740Z,3.40
2019-02-25T04:15:40.510Z,3.30
2019-02-25T04:18:11.486Z,3.30
2019-02-25T04:20:43.038Z,3.20
2019-02-25T04:23:14.596Z,3.10
2019-02-25T04:25:46.171Z,3.10
2019-02-25T04:28:17.558Z,3.10
2019-02-25T04:30:49.446Z,3.00
2019-02-25T04:33:20.983Z,3.00
2019-02-25T04:35:52.233Z,3.00
2019-02-25T04:38:23.323Z,2.90
2019-02-25T04:40:54.650Z,2.90
2019-02-25T04:43:25.910Z,2.90
2019-02-25T04:45:57.147Z,2.90
2019-02-25T04:48:28.385Z,2.90
2019-02-25T04:50:59.776Z,2.90
2019-02-25T04:53:31.361Z,3.10
2019-02-25T04:56:02.588Z,3.00
2019-02-25T04:58:34.635Z,3.10
2019-02-25T05:01:05.670Z,3.20
2019-02-25T05:03:37.413Z,3.20
2019-02-25T05:06:09.430Z,3.10
2019-02-25T05:08:41.511Z,3.00
2019-02-25T05:11:12.793Z,2.90
2019-02-25T05:13:44.331Z,3.10
2019-02-25T05:16:22.919Z,3.20
2019-02-25T05:18:54.750Z,3.10
2019-02-25T05:21:26.650Z,3.00
2019-02-25T05:23:57.962Z,3.00
2019-02-25T05:26:29.467Z,2.90
2019-02-25T05:29:00.733Z,2.90
2019-02-25T05:31:31.750Z,2.80
2019-02-25T05:34:02.438Z,2.90
2019-02-25T05:36:33.374Z,2.90
2019-02-25T05:39:05.961Z,2.80
2019-02-25T05:41:37.546Z,2.90
2019-02-25T05:44:08.779Z,2.80
2019-02-25T05:46:40.612Z,2.80
2019-02-25T05:49:12.308Z,2.80
2019-02-25T05:51:44.156Z,2.80
2019-02-25T05:54:16.026Z,2.80
2019-02-25T05:56:47.544Z,2.80
2019-02-25T05:59:19.263Z,2.80
2019-02-25T06:01:51.141Z,2.90
2019-02-25T06:04:22.680Z,2.80
2019-02-25T06:06:53.769Z,2.80
2019-02-25T06:09:25.477Z,2.80
2019-02-25T06:11:57.127Z,2.90
2019-02-25T06:14:29.121Z,2.90
2019-02-25T06:17:01.277Z,2.90
2019-02-25T06:19:33.151Z,2.90
2019-02-25T06:22:04.820Z,2.80
2019-02-25T06:24:36.423Z,2.90
2019-02-25T06:27:07.746Z,2.90
2019-02-25T06:29:39.433Z,2.90
2019-02-25T06:32:12.154Z,2.90
2019-02-25T06:34:43.735Z,2.90
2019-02-25T06:37:15.686Z,2.90
2019-02-25T06:39:46.368Z,3.00
2019-02-25T06:42:18.025Z,3.00
2019-02-25T06:44:49.592Z,3.00
2019-02-25T06:47:21.183Z,3.10
2019-02-25T06:49:52.936Z,3.00
2019-02-25T06:52:24.858Z,3.20
2019-02-25T06:54:55.578Z,3.30
2019-02-25T06:57:27.407Z,3.20
2019-02-25T06:59:59.020Z,3.30
2019-02-25T07:02:30.986Z,3.30
2019-02-25T07:05:16.082Z,3.40
2019-02-25T07:07:53.238Z,3.30
2019-02-25T07:10:43.106Z,3.30
2019-02-25T07:13:31.787Z,3.30
2019-02-25T07:16:24.994Z,3.30
2019-02-25T07:19:15.651Z,3.30
2019-02-25T07:22:05.970Z,3.40
2019-02-25T07:24:55.212Z,3.60
2019-02-25T07:27:39.502Z,3.60
2019-02-25T07:30:28.537Z,3.70
2019-02-25T07:33:21.252Z,3.70
2019-02-25T07:36:09.787Z,3.70
2019-02-25T07:39:18.754Z,3.90
2019-02-25T07:42:12.068Z,4.00
2019-02-25T07:45:08.096Z,3.90
2019-02-25T07:47:50.561Z,3.90
2019-02-25T07:50:34.699Z,4.10
2019-02-25T07:53:13.603Z,4.20
2019-02-25T07:56:06.313Z,4.20
2019-02-25T07:59:00.087Z,4.30
2019-02-25T08:01:38.065Z,4.50
2019-02-25T08:04:25.023Z,4.50
2019-02-25T08:07:14.058Z,4.60
2019-02-25T08:09:52.738Z,4.70
2019-02-25T08:12:40.764Z,4.70
2019-02-25T08:15:26.528Z,4.80
2019-02-25T08:18:15.544Z,4.80
2019-02-25T08:20:59.859Z,5.00
2019-02-25T08:23:39.714Z,5.10
2019-02-25T08:26:29.428Z,5.10
2019-02-25T08:29:31.221Z,5.20
2019-02-25T08:32:09.527Z,5.40
2019-02-25T08:35:05.709Z,5.50
2019-02-25T08:38:17.374Z,5.50
2019-02-25T08:41:32.163Z,5.70
2019-02-25T08:44:12.897Z,5.80
2019-02-25T08:47:03.344Z,5.90
2019-02-25T08:49:41.913Z,6.10
2019-02-25T08:52:14.010Z,6.00
2019-02-25T08:54:46.112Z,6.20
2019-02-25T08:57:16.810Z,6.40
2019-02-25T08:59:48.369Z,6.30
2019-02-25T09:02:20.731Z,6.40
2019-02-25T09:04:52.358Z,6.50
2019-02-25T09:07:23.550Z,6.60
2019-02-25T09:09:55.371Z,6.60
2019-02-25T09:12:27.033Z,6.80
2019-02-25T09:14:58.288Z,7.00
2019-02-25T09:17:29.513Z,7.10
2019-02-25T09:20:01.244Z,7.20
2019-02-25T09:22:32.374Z,7.30
2019-02-25T09:25:04.139Z,7.40
2019-02-25T09:27:34.774Z,7.70
2019-02-25T09:30:07.848Z,7.80
2019-02-25T09:32:39.620Z,7.90
2019-02-25T09:35:10.941Z,8.00
2019-02-25T09:37:42.198Z,7.90
2019-02-25T09:40:15.803Z,8.00
2019-02-25T09:42:47.041Z,8.20
2019-02-25T09:45:18.189Z,8.30
2019-02-25T09:47:49.651Z,8.40
2019-02-25T09:50:21.303Z,8.60
2019-02-25T09:52:53.259Z,8.70
2019-02-25T09:55:24.998Z,8.80
2019-02-25T09:57:56.081Z,8.90
2019-02-25T10:00:27.805Z,9.10
2019-02-25T10:02:58.966Z,9.20
2019-02-25T10:05:30.852Z,9.30
2019-02-25T10:08:02.536Z,9.40
2019-02-25T10:10:34.094Z,9.60
2019-02-25T10:13:05.597Z,9.80
2019-02-25T10:15:37.354Z,10.00
2019-02-25T10:18:08.981Z,10.10
2019-02-25T10:20:40.126Z,10.20
2019-02-25T10:23:11.476Z,10.50
2019-02-25T10:25:43.026Z,10.50
2019-02-25T10:28:14.290Z,10.60
2019-02-25T10:30:52.633Z,10.80
2019-02-25T10:33:18.854Z,10.90
2019-02-25T10:35:50.163Z,11.20
2019-02-25T10:38:21.737Z,11.20
2019-02-25T10:40:53.897Z,11.50
2019-02-25T10:43:27.405Z,12.00
2019-02-25T10:45:58.201Z,12.60
2019-02-25T10:48:28.702Z,13.00
2019-02-25T10:51:00.431Z,13.40
2019-02-25T10:53:31.715Z,13.70
2019-02-25T10:56:30.871Z,14.10
2019-02-25T10:59:04.505Z,14.00
2019-02-25T11:01:37.555Z,14.50
2019-02-25T11:04:10.041Z,14.70
2019-02-25T11:06:41.478Z,14.60
2019-02-25T11:09:31.483Z,14.50
2019-02-25T11:12:03.070Z,14.60
2019-02-25T11:14:35.938Z,14.90
2019-02-25T11:17:07.494Z,15.30
2019-02-25T11:19:39.195Z,15.60
2019-02-25T11:22:12.130Z,15.50
2019-02-25T11:24:46.846Z,15.80
2019-02-25T11:27:18.286Z,15.90
2019-02-25T11:29:50.097Z,16.50
2019-02-25T11:32:23.780Z,16.70
2019-02-25T11:34:54.955Z,16.70
2019-02-25T11:37:27.083Z,16.80
2019-02-25T11:39:59.838Z,17.20
2019-02-25T11:42:31.712Z,17.20
2019-02-25T11:45:04.467Z,17.00
2019-02-25T11:47:36.233Z,17.50
2019-02-25T11:50:08.735Z,17.40
2019-02-25T11:52:41.078Z,17.30
2019-02-25T11:55:13.574Z,17.20
2019-02-25T11:57:44.825Z,17.70
2019-02-25T12:00:21.755Z,18.60
2019-02-25T12:02:52.793Z,18.50
2019-02-25T12:05:24.380Z,18.70
2019-02-25T12:07:55.903Z,19.00
2019-02-25T12:10:27.749Z,18.60
2019-02-25T12:12:59.601Z,18.70
2019-02-25T12:15:31.261Z,18.50
2019-02-25T12:18:02.584Z,18.70
2019-02-25T12:20:34.420Z,18.80
2019-02-25T12:23:05.491Z,19.00
2019-02-25T12:25:36.611Z,19.30
2019-02-25T12:28:08.149Z,19.40
2019-02-25T12:30:39.819Z,19.60
2019-02-25T12:33:11.264Z,19.50
2019-02-25T12:35:42.868Z,19.20
2019-02-25T12:38:14.501Z,19.50
2019-02-25T12:40:46.451Z,19.90
2019-02-25T12:43:17.455Z,20.10
2019-02-25T12:45:48.741Z,20.30
2019-02-25T12:48:22.683Z,20.40
2019-02-25T12:50:53.693Z,20.20
2019-02-25T12:53:24.983Z,20.10
2019-02-25T12:55:56.940Z,20.40
2019-02-25T12:58:28.733Z,20.60
2019-02-25T13:00:59.848Z,20.70
2019-02-25T13:03:31.172Z,20.70
2019-02-25T13:06:02.852Z,20.60
2019-02-25T13:08:34.202Z,20.20
2019-02-25T13:11:06.326Z,20.50
2019-02-25T13:13:37.681Z,20.50
2019-02-25T13:16:09.032Z,20.50
2019-02-25T13:18:41.098Z,20.50
2019-02-25T13:21:13.018Z,20.60
2019-02-25T13:23:44.668Z,20.90
2019-02-25T13:26:16.179Z,21.00
2019-02-25T13:28:47.499Z,20.90
2019-02-25T13:31:18.521Z,21.30
2019-02-25T13:33:50.591Z,21.00
2019-02-25T13:36:21.861Z,21.20
2019-02-25T13:38:52.559Z,21.40
2019-02-25T13:41:24.228Z,21.20
2019-02-25T13:43:55.305Z,21.10
2019-02-25T13:46:27.307Z,21.40
2019-02-25T13:48:58.900Z,21.60
2019-02-25T13:51:30.895Z,21.90
2019-02-25T13:54:02.738Z,21.60
2019-02-25T13:56:34.056Z,21.20
2019-02-25T13:59:05.190Z,21.50
2019-02-25T14:01:36.757Z,21.40
2019-02-25T14:04:08.454Z,21.40
2019-02-25T14:06:40.272Z,20.30
2019-02-25T14:09:12.217Z,20.50
2019-02-25T14:11:43.829Z,20.70
2019-02-25T14:14:15.648Z,20.70
2019-02-25T14:16:47.775Z,20.70
2019-02-25T14:19:19.086Z,20.80
2019-02-25T14:21:50.166Z,20.70
2019-02-25T14:24:21.283Z,20.60
2019-02-25T14:26:54.537Z,21.20
2019-02-25T14:29:26.401Z,21.40
2019-02-25T14:31:57.757Z,20.50
2019-02-25T14:34:29.449Z,20.70
2019-02-25T14:37:02.672Z,20.90
2019-02-25T14:39:35.968Z,20.80
2019-02-25T14:42:09.302Z,20.60
2019-02-25T14:44:43.050Z,20.70
2019-02-25T14:47:20.544Z,21.30
2019-02-25T14:49:47.594Z,21.00
2019-02-25T14:52:19.306Z,20.80
2019-02-25T14:54:52.152Z,21.20
2019-02-25T14:57:24.844Z,21.10
2019-02-25T14:59:56.925Z,20.60
2019-02-25T15:02:28.854Z,20.50
2019-02-25T15:05:00.390Z,20.50
2019-02-25T15:07:32.401Z,20.60
2019-02-25T15:10:04.274Z,20.50
2019-02-25T15:12:37.754Z,20.20
2019-02-25T15:15:13.120Z,20.10
2019-02-25T15:17:46.088Z,19.70
2019-02-25T15:20:18.605Z,19.70
2019-02-25T15:22:51.639Z,19.70
2019-02-25T15:25:23.408Z,19.90
2019-02-25T15:27:54.040Z,19.80
2019-02-25T15:30:28.295Z,19.90
2019-02-25T15:33:00.228Z,20.00
2019-02-25T15:35:34.663Z,19.80
2019-02-25T15:38:04.528Z,19.30
2019-02-25T15:40:35.807Z,19.20
2019-02-25T15:43:15.096Z,19.10
2019-02-25T15:45:46.098Z,18.70
2019-02-25T15:48:20.252Z,18.50
2019-02-25T15:50:55.980Z,18.50
2019-02-25T15:53:28.254Z,18.20
2019-02-25T15:56:01.345Z,18.00
2019-02-25T15:58:32.055Z,17.80
2019-02-25T16:01:03.418Z,17.70
2019-02-25T16:03:36.642Z,17.70
2019-02-25T16:06:10.616Z,17.50
2019-02-25T16:08:42.667Z,17.40
2019-02-25T16:11:16.196Z,17.40
2019-02-25T16:13:47.554Z,17.40
2019-02-25T16:16:20.189Z,17.30
2019-02-25T16:18:53.515Z,17.10
2019-02-25T16:21:26.686Z,17.10
2019-02-25T16:23:59.219Z,17.00
2019-02-25T16:26:32.012Z,16.90
2019-02-25T16:29:06.406Z,16.90
2019-02-25T16:31:37.616Z,17.00
2019-02-25T16:34:10.044Z,17.00
2019-02-25T16:36:45.242Z,17.00
2019-02-25T16:39:16.168Z,17.00
2019-02-25T16:41:48.099Z,16.80
2019-02-25T16:44:19.549Z,16.60
2019-02-25T16:46:51.226Z,16.50
2019-02-25T16:49:23.228Z,16.20
2019-02-25T16:51:56.044Z,16.10
2019-02-25T16:54:28.492Z,15.90
2019-02-25T16:57:00.594Z,15.70
2019-02-25T16:59:31.750Z,15.60
2019-02-25T17:02:04.673Z,15.40
2019-02-25T17:04:35.751Z,15.30
2019-02-25T17:07:07.083Z,15.10
2019-02-25T17:09:39.148Z,15.10
2019-02-25T17:12:11.258Z,14.90
2019-02-25T17:14:42.566Z,14.70
2019-02-25T17:17:14.476Z,14.60
2019-02-25T17:19:46.467Z,14.50
2019-02-25T17:22:17.874Z,14.40
2019-02-25T17:24:49.503Z,14.20
2019-02-25T17:27:21.001Z,14.10
2019-02-25T17:29:53.848Z,14.10
2019-02-25T17:32:25.558Z,13.90
2019-02-25T17:34:58.191Z,13.80
2019-02-25T17:37:31.486Z,13.70
2019-02-25T17:40:04.432Z,13.50
2019-02-25T17:42:36.575Z,13.50
2019-02-25T17:45:10.914Z,13.40
2019-02-25T17:47:42.459Z,13.30
2019-02-25T17:50:17.372Z,13.30
2019-02-25T17:52:49.032Z,13.10
2019-02-25T17:55:22.123Z,13.10
2019-02-25T17:57:54.341Z,13.00
2019-02-25T18:00:35.006Z,12.90
2019-02-25T18:03:07.671Z,12.80
2019-02-25T18:05:40.787Z,12.80
2019-02-25T18:08:13.375Z,12.70
2019-02-25T18:10:45.989Z,12.60
2019-02-25T18:13:19.004Z,12.60
2019-02-25T18:15:52.046Z,12.60
2019-02-25T18:18:25.069Z,12.70
2019-02-25T18:20:56.395Z,12.70
2019-02-25T18:23:27.977Z,12.50
2019-02-25T18:25:59.917Z,12.40
2019-02-25T18:28:31.547Z,12.30
2019-02-25T18:31:04.437Z,12.40
2019-02-25T18:33:37.248Z,12.40
2019-02-25T18:36:11.195Z,12.30
2019-02-25T18:38:44.286Z,12.00
2019-02-25T18:41:16.736Z,11.90
2019-02-25T18:43:49.425Z,11.80
2019-02-25T18:46:23.372Z,11.60
2019-02-25T18:48:55.515Z,11.50
2019-02-25T18:51:28.295Z,11.40
2019-02-25T18:54:03.623Z,11.30
2019-02-25T18:56:35.798Z,11.20
2019-02-25T18:59:13.055Z,11.30
2019-02-25T19:01:41.291Z,11.20
2019-02-25T19:04:13.243Z,11.20
2019-02-25T19:06:47.853Z,11.10
2019-02-25T19:09:23.167Z,11.00
2019-02-25T19:11:57.793Z,11.00
2019-02-25T19:14:31.123Z,10.90
2019-02-25T19:17:04.832Z,10.90
2019-02-25T19:19:38.438Z,10.80
2019-02-25T19:22:10.814Z,10.80
2019-02-25T19:24:44.427Z,10.70
2019-02-25T19:27:16.230Z,10.60
2019-02-25T19:29:49.397Z,10.60
2019-02-25T19:32:23.035Z,10.50
2019-02-25T19:34:56.253Z,10.40
2019-02-25T19:37:31.156Z,10.30
2019-02-25T19:40:05.308Z,10.20
2019-02-25T19:42:35.143Z,10.20
2019-02-25T19:45:08.107Z,10.20
2019-02-25T19:47:43.130Z,10.10
2019-02-25T19:50:15.267Z,9.90
2019-02-25T19:52:46.729Z,9.90
2019-02-25T19:55:20.479Z,10.00
2019-02-25T19:57:51.376Z,10.00
2019-02-25T20:00:28.257Z,9.90
2019-02-25T20:03:05.830Z,9.70
2019-02-25T20:05:33.694Z,9.60
2019-02-25T20:08:06.412Z,9.50
2019-02-25T20:10:38.160Z,9.50
2019-02-25T20:13:10.083Z,9.40
2019-02-25T20:15:44.081Z,9.40
2019-02-25T20:18:16.160Z,9.50
2019-02-25T20:20:48.780Z,9.50
2019-02-25T20:23:22.294Z,9.50
2019-02-25T20:25:55.679Z,9.50
2019-02-25T20:28:27.943Z,9.40
2019-02-25T20:30:59.652Z,9.30
2019-02-25T20:33:32.954Z,9.30
2019-02-25T20:36:04.163Z,9.30
2019-02-25T20:38:37.270Z,9.30
2019-02-25T20:41:09.407Z,9.10
2019-02-25T20:43:40.728Z,9.00
2019-02-25T20:46:11.989Z,9.10
2019-02-25T20:48:46.428Z,9.10
2019-02-25T20:51:17.336Z,9.10
2019-02-25T20:53:50.690Z,8.90
2019-02-25T20:56:22.821Z,8.80
2019-02-25T20:58:55.364Z,8.80
2019-02-25T21:01:27.448Z,8.70
2019-02-25T21:03:59.379Z,8.70
2019-02-25T21:06:32.534Z,8.70
2019-02-25T21:09:05.046Z,8.60
2019-02-25T21:11:37.207Z,8.50
2019-02-25T21:14:09.052Z,8.50
2019-02-25T21:16:40.368Z,8.40
2019-02-25T21:19:13.068Z,8.40
2019-02-25T21:21:44.184Z,8.40
2019-02-25T21:24:15.003Z,8.30
2019-02-25T21:26:46.618Z,8.30
2019-02-25T21:29:17.671Z,8.30
2019-02-25T21:31:51.785Z,8.20
2019-02-25T21:34:24.322Z,8.10
2019-02-25T21:36:56.719Z,8.10
2019-02-25T21:39:28.798Z,7.90
2019-02-25T21:42:00.088Z,8.00
2019-02-25T21:44:31.676Z,8.00
2019-02-25T21:47:03.783Z,7.90
2019-02-25T21:49:36.464Z,7.80
2019-02-25T21:52:10.644Z,7.80
2019-02-25T21:54:42.148Z,7.80
2019-02-25T21:57:14.570Z,7.80
2019-02-25T21:59:46.101Z,7.70
2019-02-25T22:02:17.690Z,7.70
2019-02-25T22:04:50.134Z,7.60
2019-02-25T22:07:24.998Z,7.70
2019-02-25T22:09:55.457Z,7.60
2019-02-25T22:12:26.921Z,7.70
2019-02-25T22:15:00.033Z,7.70
2019-02-25T22:17:32.055Z,7.70
2019-02-25T22:20:04.933Z,7.80
2019-02-25T22:22:37.538Z,7.80
2019-02-25T22:25:11.923Z,7.80
2019-02-25T22:27:45.588Z,7.70
2019-02-25T22:30:18.097Z,7.60
2019-02-25T22:32:49.194Z,7.60
2019-02-25T22:35:21.126Z,7.50
2019-02-25T22:37:55.453Z,7.40
2019-02-25T22:40:27.883Z,7.30
2019-02-25T22:42:59.397Z,7.30
2019-02-25T22:45:32.657Z,7.30
2019-02-25T22:48:03.522Z,7.30
2019-02-25T22:50:36.046Z,7.30
2019-02-25T22:53:12.670Z,7.30
2019-02-25T22:55:44.928Z,7.30
2019-02-25T22:58:17.601Z,7.20
2019-02-25T23:00:54.063Z,7.10
2019-02-25T23:03:27.648Z,7.00
2019-02-25T23:05:58.789Z,7.00
2019-02-25T23:08:30.025Z,7.00
2019-02-25T23:11:01.665Z,7.00
2019-02-25T23:13:32.904Z,7.00
2019-02-25T23:16:04.793Z,7.00
2019-02-25T23:18:37.081Z,6.90
2019-02-25T23:21:08.755Z,6.90
2019-02-25T23:23:40.294Z,6.80
2019-02-25T23:26:12.694Z,6.80
2019-02-25T23:28:45.330Z,6.80
2019-02-25T23:31:17.249Z,6.70
2019-02-25T23:33:48.996Z,6.60
2019-02-25T23:36:22.203Z,6.70
2019-02-25T23:38:57.020Z,6.60
2019-02-25T23:41:31.892Z,6.60
2019-02-25T23:44:01.937Z,6.50
2019-02-25T23:46:34.702Z,6.50
2019-02-25T23:49:06.477Z,6.40
2019-02-25T23:51:39.426Z,6.40
2019-02-25T23:54:12.162Z,6.30
2019-02-25T23:56:47.652Z,6.20
2019-02-25T23:59:19.322Z,6.20
